Time;durP1;ratioP1;P1;durP2;ratioP2;P2;SDS_P1;SDS_P2;PMS_P1;PMS_P2;Temp;Humidity;BMP_temperature;BMP_pressure;BME280_temperature;BME280_humidity;BME280_pressure;Samples;Min_cycle;Max_cycle;Signal;HPM_P1;HPM_P2
2022/05/10 00:02:14;;;;;;;21.00;5.75;;;11.90;99.90;;;;;;4996336;28;20044;-69
2022/05/10 00:04:42;;;;;;;14.93;5.47;;;11.90;99.90;;;;;;4995888;28;20114;-70
2022/05/10 00:07:08;;;;;;;19.92;5.07;;;12.00;99.90;;;;;;4996541;28;20035;-70
2022/05/10 00:09:33;;;;;;;17.33;4.32;;;11.90;99.90;;;;;;4996302;28;20470;-70
2022/05/10 00:11:59;;;;;;;18.65;5.10;;;11.90;99.90;;;;;;5010273;28;20038;-70
2022/05/10 00:14:27;;;;;;;12.23;4.15;;;11.90;99.90;;;;;;4996606;28;20040;-70
2022/05/10 00:16:53;;;;;;;18.95;4.88;;;11.90;99.90;;;;;;4995880;28;20019;-69
2022/05/10 00:19:20;;;;;;;12.45;5.57;;;11.90;99.90;;;;;;4995751;28;20026;-70
2022/05/10 00:21:47;;;;;;;15.60;5.00;;;11.80;99.90;;;;;;4996031;28;20029;-70
2022/05/10 00:24:13;;;;;;;16.17;5.35;;;11.80;99.90;;;;;;4996222;28;20030;-70
2022/05/10 00:26:40;;;;;;;10.45;4.40;;;11.80;99.90;;;;;;4995950;28;20030;-70
2022/05/10 00:29:06;;;;;;;14.55;4.35;;;11.80;99.90;;;;;;4995308;28;20033;-70
2022/05/10 00:31:32;;;;;;;16.08;4.32;;;11.90;99.90;;;;;;4996683;28;20033;-70
2022/05/10 00:33:59;;;;;;;20.55;4.97;;;11.90;99.90;;;;;;4997238;28;20041;-70
2022/05/10 00:36:25;;;;;;;8.95;4.03;;;12.00;99.90;;;;;;4996647;28;20494;-70
2022/05/10 00:38:51;;;;;;;19.95;5.47;;;12.00;99.90;;;;;;4995522;28;20483;-69
2022/05/10 00:41:26;;;;;;;20.83;5.05;;;12.00;99.90;;;;;;4995849;28;20080;-70
2022/05/10 00:44:04;;;;;;;14.07;5.63;;;11.90;99.90;;;;;;4995556;28;20037;-70
2022/05/10 00:46:35;;;;;;;23.15;4.50;;;12.00;99.90;;;;;;4995519;28;20033;-70
2022/05/10 00:49:03;;;;;;;12.98;4.47;;;12.00;99.90;;;;;;4995720;28;20046;-70
2022/05/10 00:51:45;;;;;;;10.60;4.68;;;11.90;99.90;;;;;;4995775;28;20042;-70
2022/05/10 00:54:26;;;;;;;12.80;4.53;;;11.90;99.90;;;;;;4994948;28;20490;-70
2022/05/10 00:57:16;;;;;;;15.10;4.10;;;11.80;99.90;;;;;;4995599;28;20375;-70
2022/05/10 00:59:56;;;;;;;15.25;5.28;;;11.80;99.90;;;;;;4995413;28;20105;-70
2022/05/10 01:02:44;;;;;;;15.52;4.63;;;11.70;99.90;;;;;;4994984;28;20066;-70
2022/05/10 01:05:23;;;;;;;17.58;5.30;;;11.70;99.90;;;;;;4995690;28;20030;-70
2022/05/10 01:08:00;;;;;;;20.42;4.53;;;11.60;99.90;;;;;;4995413;28;20078;-70
2022/05/10 01:10:35;;;;;;;13.35;4.60;;;11.50;99.90;;;;;;4995304;28;20026;-70
2022/05/10 01:13:22;;;;;;;14.60;4.82;;;11.50;99.90;;;;;;4995217;28;20029;-70
2022/05/10 01:16:05;;;;;;;14.90;5.13;;;11.50;99.90;;;;;;4994836;28;20054;-70
2022/05/10 01:18:30;;;;;;;16.75;5.28;;;11.50;99.90;;;;;;4995255;28;20096;-70
2022/05/10 01:21:02;;;;;;;11.65;5.28;;;11.50;99.90;;;;;;4995032;28;20413;-70
2022/05/10 01:23:45;;;;;;;8.50;4.28;;;11.50;99.90;;;;;;4994648;28;20113;-70
2022/05/10 01:26:19;;;;;;;13.35;5.32;;;11.50;99.90;;;;;;4994347;28;20068;-70
2022/05/10 01:28:50;;;;;;;20.77;4.53;;;11.40;99.90;;;;;;4994902;28;20471;-69
2022/05/10 01:31:30;;;;;;;19.48;4.55;;;11.40;99.90;;;;;;4995108;28;20578;-70
2022/05/10 01:34:03;;;;;;;13.07;4.65;;;11.30;99.90;;;;;;4994901;28;20030;-70
2022/05/10 01:37:09;;;;;;;11.75;5.68;;;11.30;99.90;;;;;;4994658;28;20030;-70
2022/05/10 01:39:45;;;;;;;15.48;4.63;;;11.30;99.90;;;;;;4989763;28;20106;-70
2022/05/10 01:42:23;;;;;;;13.43;5.57;;;11.20;99.90;;;;;;4995370;28;20386;-70
2022/05/10 01:44:59;;;;;;;14.48;4.65;;;11.10;99.90;;;;;;4995064;28;20078;-70
2022/05/10 01:47:32;;;;;;;13.55;4.90;;;11.00;99.90;;;;;;4994551;28;20504;-70
2022/05/10 01:50:17;;;;;;;15.85;5.30;;;11.00;99.90;;;;;;4993966;28;20058;-70
2022/05/10 01:53:03;;;;;;;12.57;4.18;;;10.90;99.90;;;;;;4994691;28;20038;-70
2022/05/10 01:55:35;;;;;;;15.65;5.78;;;10.90;99.90;;;;;;4994831;28;20034;-70
2022/05/10 01:58:31;;;;;;;16.90;5.57;;;10.80;99.90;;;;;;4993143;28;20110;-70
2022/05/10 02:01:03;;;;;;;13.00;4.82;;;10.80;99.90;;;;;;4993822;28;20014;-70
2022/05/10 02:03:43;;;;;;;13.13;4.95;;;10.80;99.90;;;;;;4994323;28;20561;-70
2022/05/10 02:06:31;;;;;;;13.63;5.32;;;10.80;99.90;;;;;;4994621;28;20048;-70
2022/05/10 02:08:59;;;;;;;19.35;5.50;;;10.80;99.90;;;;;;4993720;28;20430;-70
2022/05/10 02:11:25;;;;;;;21.05;5.70;;;10.80;99.90;;;;;;4994381;28;20045;-70
2022/05/10 02:13:55;;;;;;;15.02;6.00;;;10.80;99.90;;;;;;4994590;28;20117;-70
2022/05/10 02:16:27;;;;;;;19.55;5.53;;;10.80;99.90;;;;;;4994035;28;20037;-70
2022/05/10 02:18:59;;;;;;;17.70;5.25;;;10.80;99.90;;;;;;4993757;28;20061;-70
2022/05/10 02:21:30;;;;;;;12.30;5.43;;;10.80;99.90;;;;;;4994668;28;20018;-70
2022/05/10 02:24:25;;;;;;;18.90;5.68;;;10.80;99.90;;;;;;4994333;28;20113;-70
2022/05/10 02:27:26;;;;;;;18.25;5.82;;;10.80;99.90;;;;;;4992451;28;20121;-70
2022/05/10 02:30:03;;;;;;;9.65;4.80;;;10.70;99.90;;;;;;4991768;28;20073;-70
2022/05/10 02:35:21;;;;;;;15.80;6.03;;;10.60;99.90;;;;;;4995275;28;20386;-70
2022/05/10 02:37:47;;;;;;;16.27;5.55;;;10.60;99.90;;;;;;4997406;28;20097;-70
2022/05/10 02:40:14;;;;;;;11.15;4.70;;;10.60;99.90;;;;;;4997777;28;20430;-71
2022/05/10 02:42:40;;;;;;;9.70;5.72;;;10.60;99.90;;;;;;4997790;28;20030;-71
2022/05/10 02:45:07;;;;;;;9.07;4.95;;;10.60;99.90;;;;;;4997917;28;20570;-71
2022/05/10 02:47:35;;;;;;;11.65;4.53;;;10.60;99.90;;;;;;4997230;28;20541;-70
2022/05/10 02:50:01;;;;;;;15.70;4.95;;;10.70;99.90;;;;;;4997616;28;20038;-70
2022/05/10 02:52:27;;;;;;;12.93;5.00;;;10.70;99.90;;;;;;4997945;28;20097;-70
2022/05/10 02:55:00;;;;;;;15.55;4.65;;;10.70;99.90;;;;;;4998098;28;20113;-70
2022/05/10 02:57:26;;;;;;;13.45;6.85;;;10.60;99.90;;;;;;4998857;28;20038;-70
2022/05/10 02:59:56;;;;;;;12.90;5.53;;;10.70;99.90;;;;;;4998360;28;20062;-70
2022/05/10 03:02:29;;;;;;;24.90;6.82;;;10.70;99.90;;;;;;4997462;28;20025;-70
2022/05/10 03:04:58;;;;;;;;;;;10.80;99.90;;;;;;4998131;28;20034;-70
2022/05/10 03:07:26;;;;;;;13.48;4.90;;;10.80;99.90;;;;;;4997716;28;19929;-70
2022/05/10 03:09:51;;;;;;;11.77;5.07;;;10.90;99.90;;;;;;4996860;28;20081;-70
2022/05/10 03:12:17;;;;;;;17.75;5.53;;;11.00;99.90;;;;;;4997371;28;20034;-70
2022/05/10 03:14:43;;;;;;;14.85;5.88;;;11.00;99.90;;;;;;4997167;28;20478;-70
2022/05/10 03:17:10;;;;;;;10.00;5.25;;;11.10;99.90;;;;;;4997166;28;20018;-70
2022/05/10 03:19:40;;;;;;;17.15;5.72;;;11.10;99.90;;;;;;4996726;28;20023;-70
2022/05/10 03:22:07;;;;;;;15.43;4.85;;;11.10;99.90;;;;;;4997478;28;20451;-70
2022/05/10 03:24:32;;;;;;;13.80;5.93;;;11.10;99.90;;;;;;4997063;28;20026;-70
2022/05/10 03:27:00;;;;;;;11.80;5.03;;;11.20;99.90;;;;;;4997447;28;20026;-70
2022/05/10 03:29:26;;;;;;;13.35;6.05;;;11.10;99.90;;;;;;4996648;28;20049;-70
2022/05/10 03:31:52;;;;;;;10.57;5.45;;;11.10;99.90;;;;;;4996968;28;20023;-71
2022/05/10 03:37:03;;;;;;;12.07;5.45;;;11.00;99.90;;;;;;4997224;28;20029;-70
2022/05/10 03:39:28;;;;;;;12.77;6.20;;;11.00;99.90;;;;;;4996270;28;20023;-70
2022/05/10 03:41:54;;;;;;;47.88;7.90;;;11.00;99.90;;;;;;4996674;28;20494;-70
2022/05/10 03:44:20;;;;;;;18.42;6.57;;;11.00;99.90;;;;;;4996793;28;20386;-70
2022/05/10 03:46:46;;;;;;;25.13;5.90;;;11.10;99.90;;;;;;4996688;28;20434;-70
2022/05/10 03:49:12;;;;;;;16.48;6.60;;;11.30;99.90;;;;;;4996004;28;20026;-70
2022/05/10 03:51:38;;;;;;;12.60;5.72;;;11.40;99.90;;;;;;4996809;28;20069;-70
2022/05/10 03:54:04;;;;;;;20.23;6.55;;;11.70;99.90;;;;;;4996466;28;20030;-70
2022/05/10 03:56:30;;;;;;;19.75;6.97;;;11.80;99.90;;;;;;4996765;28;20134;-70
2022/05/10 03:58:55;;;;;;;9.57;5.28;;;12.00;99.90;;;;;;4995918;28;20029;-70
2022/05/10 04:01:21;;;;;;;14.98;5.63;;;12.10;99.90;;;;;;4996318;28;20031;-70
2022/05/10 04:03:47;;;;;;;17.02;7.05;;;12.10;99.90;;;;;;4996555;28;20033;-70
2022/05/10 04:06:13;;;;;;;16.92;6.13;;;12.10;99.90;;;;;;4996365;28;20034;-70
2022/05/10 04:08:38;;;;;;;14.38;5.35;;;12.10;99.90;;;;;;4996539;28;20022;-70
2022/05/10 04:11:07;;;;;;;12.88;6.50;;;12.20;99.90;;;;;;4996432;28;20387;-70
2022/05/10 04:13:33;;;;;;;14.85;5.68;;;12.20;99.90;;;;;;4996253;28;20387;-70
2022/05/10 04:15:59;;;;;;;19.20;6.00;;;12.20;99.90;;;;;;4996286;28;20026;-69
2022/05/10 04:18:25;;;;;;;19.52;5.55;;;12.20;99.90;;;;;;5011233;28;20499;-70
2022/05/10 04:20:51;;;;;;;27.08;6.25;;;12.20;99.90;;;;;;4996113;28;20026;-70
2022/05/10 04:23:17;;;;;;;20.88;6.22;;;12.20;99.90;;;;;;4995993;28;20363;-70
2022/05/10 04:25:43;;;;;;;10.30;5.53;;;12.20;99.90;;;;;;4995773;28;20037;-70
2022/05/10 04:28:09;;;;;;;9.60;4.93;;;12.20;99.90;;;;;;5010964;28;20026;-69
2022/05/10 04:30:35;;;;;;;22.63;6.35;;;12.20;99.90;;;;;;4996146;28;20035;-69
2022/05/10 04:33:00;;;;;;;15.65;5.53;;;12.30;99.90;;;;;;4996080;28;20367;-69
2022/05/10 04:35:26;;;;;;;16.13;6.35;;;12.30;99.90;;;;;;4995780;28;20077;-69
2022/05/10 04:37:51;;;;;;;15.27;5.68;;;12.40;99.90;;;;;;4995304;28;20031;-69
2022/05/10 04:43:05;;;;;;;12.82;5.80;;;12.40;99.90;;;;;;4996009;28;20537;-69
2022/05/10 04:45:33;;;;;;;18.83;6.93;;;12.50;99.90;;;;;;4995204;28;20105;-69
2022/05/10 04:47:58;;;;;;;16.27;6.55;;;12.50;99.90;;;;;;4995850;28;20045;-69
2022/05/10 04:50:25;;;;;;;22.08;5.07;;;12.50;99.90;;;;;;4995358;28;20514;-70
2022/05/10 04:52:51;;;;;;;10.93;5.60;;;12.60;99.90;;;;;;4995630;28;20047;-70
2022/05/10 04:55:17;;;;;;;20.00;6.25;;;12.60;99.90;;;;;;4995640;28;20105;-70
2022/05/10 04:57:42;;;;;;;15.93;6.60;;;12.60;99.90;;;;;;4994729;28;20466;-70
2022/05/10 05:00:12;;;;;;;20.15;6.25;;;12.70;99.90;;;;;;4994833;28;20026;-69
2022/05/10 05:02:38;;;;;;;13.10;5.85;;;12.70;99.90;;;;;;4995255;28;20029;-69
2022/05/10 05:05:05;;;;;;;24.92;6.55;;;12.80;99.90;;;;;;4995188;28;20026;-69
2022/05/10 05:07:30;;;;;;;10.80;6.00;;;12.80;99.90;;;;;;4995143;28;20598;-70
2022/05/10 05:09:56;;;;;;;25.55;6.68;;;12.90;99.90;;;;;;4995023;28;20034;-70
2022/05/10 05:12:22;;;;;;;11.88;5.38;;;12.90;99.90;;;;;;4995166;28;20497;-70
2022/05/10 05:14:48;;;;;;;16.85;6.35;;;13.00;99.90;;;;;;4994722;28;20386;-69
2022/05/10 05:17:14;;;;;;;21.27;7.15;;;13.10;99.90;;;;;;4995239;28;20455;-70
2022/05/10 05:19:39;;;;;;;12.60;6.57;;;13.10;99.90;;;;;;4996009;28;20026;-70
2022/05/10 05:22:05;;;;;;;16.58;6.35;;;13.20;99.90;;;;;;4996206;28;20027;-70
2022/05/10 05:24:31;;;;;;;15.45;6.28;;;13.20;99.90;;;;;;4994478;28;20037;-69
2022/05/10 05:26:57;;;;;;;21.30;5.90;;;13.20;99.90;;;;;;4995110;28;20026;-69
2022/05/10 05:29:23;;;;;;;16.80;6.45;;;13.30;99.90;;;;;;4995198;28;20046;-69
2022/05/10 05:31:49;;;;;;;20.90;6.35;;;13.30;99.90;;;;;;4994843;28;20509;-70
2022/05/10 05:34:15;;;;;;;11.65;6.10;;;13.40;99.90;;;;;;4994927;28;20035;-70
2022/05/10 05:36:41;;;;;;;9.32;5.47;;;13.40;99.90;;;;;;4994174;28;20037;-69
2022/05/10 05:39:06;;;;;;;13.07;6.28;;;13.50;99.90;;;;;;4994959;28;20077;-69
2022/05/10 05:41:32;;;;;;;16.50;6.75;;;13.60;99.90;;;;;;4995129;28;20030;-69
2022/05/10 05:43:57;;;;;;;15.80;6.65;;;13.60;99.90;;;;;;4994539;28;20034;-69
2022/05/10 05:46:23;;;;;;;12.32;5.88;;;13.70;99.90;;;;;;4995067;28;20026;-69
2022/05/10 05:48:48;;;;;;;16.80;6.95;;;13.80;99.90;;;;;;4993942;28;20030;-69
2022/05/10 05:51:14;;;;;;;24.20;7.45;;;13.90;99.90;;;;;;5018005;23;20042;-71
2022/05/10 05:53:39;;;;;;;21.60;7.85;;;13.90;99.90;;;;;;4994884;28;20022;-71
2022/05/10 05:56:09;;;;;;;17.63;6.82;;;13.90;99.90;;;;;;4995490;28;20041;-72
2022/05/10 05:58:36;;;;;;;13.38;6.80;;;14.00;99.90;;;;;;4995100;28;20378;-72
2022/05/10 06:01:09;;;;;;;14.13;6.78;;;14.00;99.90;;;;;;5009979;28;20022;-72
2022/05/10 06:03:35;;;;;;;17.45;6.40;;;14.10;99.90;;;;;;5012807;28;20117;-71
2022/05/10 06:06:00;;;;;;;18.02;6.78;;;14.20;99.90;;;;;;5014225;28;20034;-71
2022/05/10 06:08:26;;;;;;;17.88;7.32;;;14.30;99.90;;;;;;5013895;28;20022;-71
2022/05/10 06:10:52;;;;;;;24.13;7.57;;;14.40;99.90;;;;;;5013726;28;20026;-71
2022/05/10 06:13:20;;;;;;;26.75;7.97;;;14.40;99.90;;;;;;5013850;28;20022;-71
2022/05/10 06:15:46;;;;;;;24.50;7.88;;;14.40;99.90;;;;;;5013816;28;20022;-71
2022/05/10 06:18:12;;;;;;;25.80;7.07;;;14.30;99.90;;;;;;5013963;28;20359;-71
2022/05/10 06:20:37;;;;;;;18.63;7.05;;;14.50;99.90;;;;;;5013840;28;20021;-71
2022/05/10 06:23:04;;;;;;;21.10;6.85;;;14.50;99.90;;;;;;5013354;28;20452;-71
2022/05/10 06:25:30;;;;;;;25.15;8.27;;;14.60;99.90;;;;;;5013961;28;20486;-71
2022/05/10 06:27:56;;;;;;;29.30;7.80;;;14.60;99.90;;;;;;5014127;28;20081;-71
2022/05/10 06:30:23;;;;;;;22.92;7.70;;;14.60;99.90;;;;;;5013758;28;20030;-71
2022/05/10 06:32:49;;;;;;;19.23;7.30;;;14.70;99.90;;;;;;5013832;28;20441;-71
2022/05/10 06:35:16;;;;;;;23.95;7.65;;;14.70;99.90;;;;;;5013469;28;20026;-72
2022/05/10 06:40:26;;;;;;;20.40;7.05;;;14.90;99.90;;;;;;5014111;28;20385;-71
2022/05/10 06:42:52;;;;;;;18.52;7.57;;;15.00;99.90;;;;;;5014254;28;20026;-72
2022/05/10 06:45:19;;;;;;;22.92;7.70;;;15.10;99.90;;;;;;5013530;28;20109;-72
2022/05/10 06:47:48;;;;;;;24.23;8.77;;;15.10;99.90;;;;;;5014168;28;20097;-72
2022/05/10 06:50:18;;;;;;;20.60;8.27;;;15.20;99.90;;;;;;5013572;28;20105;-72
2022/05/10 06:52:43;;;;;;;17.58;8.13;;;15.30;99.90;;;;;;5013573;28;20050;-72
2022/05/10 06:55:11;;;;;;;29.60;8.10;;;15.60;99.90;;;;;;5012975;28;20064;-72
2022/05/10 06:57:36;;;;;;;29.73;8.88;;;15.80;99.90;;;;;;5013705;28;20390;-72
2022/05/10 07:00:04;;;;;;;17.27;7.95;;;15.90;99.90;;;;;;5013556;28;20022;-72
2022/05/10 07:02:30;;;;;;;18.95;8.02;;;16.10;99.90;;;;;;5013740;28;20493;-71
2022/05/10 07:04:56;;;;;;;20.13;7.75;;;16.30;99.90;;;;;;5013344;28;20034;-72
2022/05/10 07:07:22;;;;;;;16.77;8.52;;;16.30;99.90;;;;;;5013712;28;20025;-71
2022/05/10 07:09:48;;;;;;;14.20;7.00;;;16.30;99.90;;;;;;5013748;28;20026;-71
2022/05/10 07:12:14;;;;;;;22.13;9.23;;;16.20;99.90;;;;;;5013357;28;20068;-72
2022/05/10 07:14:39;;;;;;;21.33;9.38;;;16.30;99.90;;;;;;5013389;28;20036;-71
2022/05/10 07:17:05;;;;;;;24.80;9.68;;;16.40;99.90;;;;;;5013306;28;20101;-71
2022/05/10 07:19:31;;;;;;;23.42;10.05;;;16.50;99.90;;;;;;5013437;28;20022;-71
2022/05/10 07:21:57;;;;;;;17.10;9.93;;;16.50;99.90;;;;;;5015191;28;20540;-71
2022/05/10 07:24:23;;;;;;;25.35;9.60;;;16.50;99.90;;;;;;5016280;28;20038;-71
2022/05/10 07:26:48;;;;;;;20.70;10.25;;;16.70;99.90;;;;;;5017111;28;20029;-71
2022/05/10 07:29:15;;;;;;;23.42;9.88;;;17.00;99.90;;;;;;5017194;28;20029;-71
2022/05/10 07:31:42;;;;;;;26.98;8.75;;;17.50;99.90;;;;;;5016744;28;20034;-71
2022/05/10 07:34:08;;;;;;;18.77;10.65;;;17.80;99.90;;;;;;5016667;28;20022;-72
2022/05/10 07:36:34;;;;;;;15.82;9.50;;;18.20;99.90;;;;;;5016870;28;20104;-72
2022/05/10 07:39:06;;;;;;;28.63;10.10;;;18.60;99.90;;;;;;5016210;28;20018;-72
2022/05/10 07:41:32;;;;;;;21.50;10.80;;;18.90;99.90;;;;;;5016507;28;20477;-72
2022/05/10 07:43:58;;;;;;;30.85;11.32;;;18.80;99.90;;;;;;5016617;28;20021;-72
2022/05/10 07:46:24;;;;;;;24.73;11.70;;;18.60;99.90;;;;;;5016527;28;20029;-72
2022/05/10 07:48:50;;;;;;;33.30;10.48;;;18.60;99.90;;;;;;5015890;28;20033;-72
2022/05/10 07:51:16;;;;;;;28.67;10.43;;;18.60;99.90;;;;;;5016308;28;20030;-71
2022/05/10 07:53:42;;;;;;;22.63;10.27;;;18.60;99.90;;;;;;5016255;28;20101;-71
2022/05/10 07:56:08;;;;;;;24.42;10.63;;;18.80;99.90;;;;;;5016249;28;20530;-71
2022/05/10 07:58:35;;;;;;;31.10;11.18;;;18.90;99.90;;;;;;5016262;28;20026;-71
2022/05/10 08:01:01;;;;;;;23.05;12.02;;;18.90;99.90;;;;;;5016224;28;20041;-71
2022/05/10 08:03:27;;;;;;;24.33;9.85;;;18.90;99.90;;;;;;5015740;28;20076;-71
2022/05/10 08:05:59;;;;;;;29.50;11.50;;;19.10;99.90;;;;;;5016098;28;20096;-71
2022/05/10 08:08:26;;;;;;;17.67;10.73;;;19.20;99.90;;;;;;5016098;28;20026;-71
2022/05/10 08:10:53;;;;;;;19.63;11.85;;;19.10;99.90;;;;;;5015996;28;20026;-71
2022/05/10 08:13:21;;;;;;;31.15;12.57;;;19.20;99.90;;;;;;5015936;28;20504;-71
2022/05/10 08:15:47;;;;;;;21.75;11.43;;;19.30;99.90;;;;;;5015497;28;20033;-71
2022/05/10 08:18:13;;;;;;;21.48;11.15;;;19.50;99.90;;;;;;5031145;28;20566;-71
2022/05/10 08:20:40;;;;;;;20.25;10.38;;;19.60;99.90;;;;;;5015856;28;20026;-71
2022/05/10 08:23:06;;;;;;;20.48;12.07;;;19.70;99.90;;;;;;5013841;28;20030;-71
2022/05/10 08:25:33;;;;;;;29.30;12.38;;;19.90;99.90;;;;;;5015687;28;20053;-71
2022/05/10 08:27:59;;;;;;;25.88;10.98;;;20.20;99.90;;;;;;5015680;28;20029;-71
2022/05/10 08:30:24;;;;;;;21.33;11.68;;;20.20;99.90;;;;;;5014941;28;20089;-71
2022/05/10 08:32:51;;;;;;;21.50;11.20;;;20.30;99.90;;;;;;5014458;28;20033;-71
2022/05/10 08:35:17;;;;;;;18.33;11.43;;;20.70;99.90;;;;;;5015702;28;20058;-71
2022/05/10 08:37:43;;;;;;;20.73;10.82;;;20.90;99.90;;;;;;5015063;28;20076;-71
2022/05/10 08:40:26;;;;;;;19.75;11.35;;;20.90;99.90;;;;;;5030711;28;20026;-71
2022/05/10 08:42:54;;;;;;;25.20;11.27;;;20.90;99.90;;;;;;5015647;28;20037;-71
2022/05/10 08:45:23;;;;;;;31.85;11.45;;;20.80;99.90;;;;;;5015581;28;20036;-72
2022/05/10 08:47:48;;;;;;;22.77;10.65;;;20.80;99.90;;;;;;5015560;28;20033;-71
2022/05/10 08:50:16;;;;;;;23.05;10.85;;;20.50;99.90;;;;;;5014646;28;20456;-71
2022/05/10 08:52:45;;;;;;;26.23;10.88;;;20.20;99.90;;;;;;5013841;28;20029;-71
2022/05/10 08:55:12;;;;;;;21.08;10.57;;;20.10;99.90;;;;;;5015047;28;20386;-71
2022/05/10 08:58:02;;;;;;;23.27;10.52;;;20.00;99.90;;;;;;5014692;28;20022;-71
2022/05/10 09:00:38;;;;;;;26.13;11.07;;;20.00;99.90;;;;;;5015775;28;20037;-71
2022/05/10 09:03:26;;;;;;;26.33;11.23;;;19.90;99.90;;;;;;5014994;28;20022;-71
2022/05/10 09:06:09;;;;;;;28.45;11.48;;;19.80;99.90;;;;;;5014983;28;20029;-71
2022/05/10 09:09:06;;;;;;;27.80;13.30;;;19.60;99.90;;;;;;5015363;28;20030;-72
2022/05/10 09:11:50;;;;;;;22.45;10.95;;;19.60;99.90;;;;;;5015276;28;20076;-72
2022/05/10 09:14:15;;;;;;;26.73;12.07;;;19.80;99.90;;;;;;5014737;28;20034;-72
2022/05/10 09:16:41;;;;;;;21.58;12.27;;;19.80;99.90;;;;;;5014792;28;20034;-71
2022/05/10 09:19:10;;;;;;;28.83;12.60;;;19.90;99.90;;;;;;5014664;28;20037;-71
2022/05/10 09:21:47;;;;;;;24.58;13.25;;;19.90;99.90;;;;;;5015095;28;20117;-71
2022/05/10 09:24:31;;;;;;;25.13;12.63;;;19.90;99.90;;;;;;5014072;28;20032;-71
2022/05/10 09:27:04;;;;;;;32.20;14.35;;;19.70;99.90;;;;;;5013277;28;20029;-71
2022/05/10 09:29:47;;;;;;;36.15;13.43;;;19.60;99.90;;;;;;5014467;28;20087;-71
2022/05/10 09:35:12;;;;;;;29.13;13.02;;;19.60;99.90;;;;;;5014013;28;20496;-71
2022/05/10 09:37:54;;;;;;;33.50;13.45;;;19.70;99.90;;;;;;5014333;28;20097;-71
2022/05/10 09:40:32;;;;;;;25.20;13.50;;;19.90;99.90;;;;;;5014299;28;20022;-71
2022/05/10 09:43:21;;;;;;;22.15;13.50;;;20.20;99.90;;;;;;5014599;28;20536;-72
2022/05/10 09:46:10;;;;;;;21.80;11.45;;;20.50;99.90;;;;;;5014499;28;20033;-72
2022/05/10 09:48:42;;;;;;;27.83;11.18;;;20.30;99.90;;;;;;5013951;28;20022;-72
2022/05/10 09:51:34;;;;;;;20.95;11.10;;;20.40;99.90;;;;;;5014010;28;20038;-72
2022/05/10 09:54:10;;;;;;;24.90;11.90;;;20.60;99.90;;;;;;5013665;28;20037;-72
2022/05/10 09:56:39;;;;;;;29.60;11.38;;;20.50;99.90;;;;;;5014167;28;20030;-72
2022/05/10 09:59:20;;;;;;;18.75;10.65;;;20.50;99.90;;;;;;5014014;28;20101;-72
2022/05/10 10:01:49;;;;;;;17.88;10.73;;;20.40;99.90;;;;;;5014492;28;20053;-71
2022/05/10 10:04:31;;;;;;;20.08;9.60;;;20.50;99.90;;;;;;5014785;28;20434;-71
2022/05/10 10:07:08;;;;;;;15.98;9.80;;;20.40;99.90;;;;;;5014006;28;20478;-71
2022/05/10 10:09:37;;;;;;;19.45;9.65;;;20.30;99.90;;;;;;5013546;28;20096;-71
2022/05/10 10:12:03;;;;;;;21.33;11.02;;;20.30;99.90;;;;;;5014063;28;20026;-71
2022/05/10 10:14:48;;;;;;;16.30;9.25;;;20.40;99.90;;;;;;5014319;28;20381;-71
2022/05/10 10:17:24;;;;;;;18.65;9.95;;;20.20;99.90;;;;;;5014136;28;20022;-71
2022/05/10 10:19:56;;;;;;;19.45;9.43;;;20.30;99.90;;;;;;5013928;28;20429;-71
2022/05/10 10:22:30;;;;;;;18.13;10.82;;;20.50;99.90;;;;;;5013272;28;20433;-71
2022/05/10 10:25:34;;;;;;;17.63;9.90;;;20.40;99.90;;;;;;5014246;28;20026;-71
2022/05/10 10:28:05;;;;;;;19.90;9.98;;;20.30;99.90;;;;;;5012799;28;20596;-71
2022/05/10 10:30:47;;;;;;;17.80;9.65;;;20.20;99.90;;;;;;5013659;28;20121;-71
2022/05/10 10:33:24;;;;;;;18.15;9.30;;;19.90;99.90;;;;;;5013780;28;20060;-71
2022/05/10 10:36:04;;;;;;;14.35;9.32;;;20.10;99.90;;;;;;5013943;28;20021;-71
2022/05/10 10:39:11;;;;;;;22.88;8.65;;;20.30;99.90;;;;;;5013413;28;20092;-71
2022/05/10 10:41:49;;;;;;;12.88;7.43;;;20.40;99.90;;;;;;4972708;28;20526;-71
2022/05/10 10:44:19;;;;;;;12.63;7.97;;;20.40;99.90;;;;;;5009887;28;20042;-72
2022/05/10 10:47:00;;;;;;;16.73;7.57;;;20.40;99.90;;;;;;5013773;28;20363;-72
2022/05/10 10:49:45;;;;;;;16.42;8.30;;;20.60;99.90;;;;;;5013550;28;20026;-71
2022/05/10 10:52:12;;;;;;;21.92;6.93;;;20.70;99.90;;;;;;5014092;28;20061;-71
2022/05/10 10:54:38;;;;;;;11.70;5.00;;;20.90;99.90;;;;;;5012991;28;20498;-71
2022/05/10 10:57:33;;;;;;;8.95;5.80;;;20.80;99.90;;;;;;5015711;28;20080;-71
2022/05/10 11:00:10;;;;;;;18.35;5.15;;;20.80;99.90;;;;;;5017247;28;20018;-71
2022/05/10 11:02:54;;;;;;;9.43;5.18;;;20.70;99.90;;;;;;5016719;28;20499;-71
2022/05/10 11:05:44;;;;;;;11.95;5.68;;;20.70;99.90;;;;;;5017515;28;20033;-71
2022/05/10 11:08:46;;;;;;;11.40;5.95;;;20.50;99.90;;;;;;5015842;28;20029;-71
2022/05/10 11:11:33;;;;;;;9.02;5.95;;;20.40;99.90;;;;;;5017212;28;20421;-72
2022/05/10 11:14:33;;;;;;;13.63;5.57;;;20.30;99.90;;;;;;5016768;28;20039;-72
2022/05/10 11:17:14;;;;;;;14.75;5.53;;;20.20;99.90;;;;;;5017099;28;20053;-72
2022/05/10 11:20:11;;;;;;;13.23;5.55;;;20.20;99.90;;;;;;5017258;28;20466;-72
2022/05/10 11:22:38;;;;;;;17.63;5.47;;;19.90;99.90;;;;;;5016784;28;20034;-72
2022/05/10 11:25:28;;;;;;;18.23;5.80;;;19.80;99.90;;;;;;5016703;28;20077;-72
2022/05/10 11:28:14;;;;;;;12.98;5.85;;;19.70;99.90;;;;;;5016864;28;20105;-72
2022/05/10 11:30:58;;;;;;;11.27;6.25;;;19.50;99.90;;;;;;5016663;28;20033;-71
2022/05/10 11:33:36;;;;;;;14.68;7.68;;;19.30;99.90;;;;;;5016914;28;20026;-71
2022/05/10 11:36:20;;;;;;;16.50;6.57;;;19.10;99.90;;;;;;5016845;28;20038;-72
2022/05/10 11:39:23;;;;;;;7.97;4.18;;;19.00;99.90;;;;;;5016547;28;20072;-72
2022/05/10 11:42:03;;;;;;;13.90;5.05;;;19.00;99.90;;;;;;5015973;28;20030;-72
2022/05/10 11:44:47;;;;;;;6.70;4.45;;;19.00;99.90;;;;;;5016733;28;20030;-71
2022/05/10 11:47:30;;;;;;;8.55;4.97;;;19.10;99.90;;;;;;5016671;28;20025;-71
2022/05/10 11:50:27;;;;;;;9.93;5.60;;;19.10;99.90;;;;;;5028095;23;20044;-68
2022/05/10 11:53:11;;;;;;;22.23;5.78;;;19.10;99.90;;;;;;4996625;28;20494;-68
2022/05/10 11:55:51;;;;;;;14.50;6.35;;;18.90;99.90;;;;;;4996712;28;20038;-68
2022/05/10 11:58:17;;;;;;;14.73;6.38;;;18.90;99.90;;;;;;4996203;28;20041;-68
2022/05/10 12:00:50;;;;;;;13.38;7.53;;;18.80;99.90;;;;;;5005755;28;20026;-68
2022/05/10 12:03:43;;;;;;;17.58;9.25;;;18.50;99.90;;;;;;5016381;28;20050;-68
2022/05/10 12:06:35;;;;;;;14.48;9.70;;;18.30;99.90;;;;;;5015689;28;20026;-68
2022/05/10 12:09:05;;;;;;;15.52;10.38;;;18.10;99.90;;;;;;5014083;28;20037;-68
2022/05/10 12:11:31;;;;;;;20.13;10.77;;;17.80;99.90;;;;;;5015763;28;20585;-68
2022/05/10 12:22:17;;;;;;;24.23;13.82;;;16.60;99.90;;;;;;5015952;28;20029;-68
2022/05/10 12:24:52;;;;;;;30.83;16.75;;;16.30;99.90;;;;;;5015604;28;20439;-68
2022/05/10 12:27:20;;;;;;;25.17;16.65;;;16.20;99.90;;;;;;5015852;28;20105;-69
2022/05/10 12:29:45;;;;;;;31.05;17.95;;;16.10;99.90;;;;;;5015010;28;20076;-68
2022/05/10 12:32:38;;;;;;;26.25;17.67;;;16.00;99.90;;;;;;5015688;28;20026;-69
2022/05/10 12:35:05;;;;;;;28.55;16.73;;;16.00;99.90;;;;;;5015326;28;20033;-69
2022/05/10 12:37:59;;;;;;;27.08;18.02;;;15.90;99.90;;;;;;5015364;28;20018;-69
2022/05/10 12:40:41;;;;;;;29.85;20.17;;;16.00;99.90;;;;;;5013015;28;20113;-68
2022/05/10 12:43:25;;;;;;;34.90;21.15;;;15.90;99.90;;;;;;5015627;28;20082;-68
2022/05/10 12:46:00;;;;;;;;;;;15.90;99.90;;;;;;5014425;28;20017;-68
2022/05/10 12:49:03;;;;;;;35.53;19.42;;;16.10;99.90;;;;;;5015446;28;19905;-68
2022/05/10 12:51:49;;;;;;;33.70;21.00;;;16.20;99.90;;;;;;5014668;28;20494;-68
2022/05/10 12:54:21;;;;;;;32.20;21.05;;;16.40;99.90;;;;;;5013268;28;20100;-68
2022/05/10 12:56:59;;;;;;;33.00;19.92;;;16.50;99.90;;;;;;5015307;28;20022;-68
2022/05/10 12:59:30;;;;;;;38.20;20.35;;;16.70;99.90;;;;;;5015597;28;20033;-68
2022/05/10 13:01:57;;;;;;;26.42;19.48;;;16.80;99.90;;;;;;5015268;28;20105;-68
2022/05/10 13:04:29;;;;;;;31.67;20.15;;;16.70;99.90;;;;;;5014899;28;20026;-68
2022/05/10 13:07:11;;;;;;;31.83;19.05;;;16.60;99.90;;;;;;5014553;28;20026;-68
2022/05/10 13:09:40;;;;;;;37.33;19.17;;;16.60;99.90;;;;;;5014473;28;20103;-68
2022/05/10 13:12:11;;;;;;;33.65;19.40;;;16.60;99.90;;;;;;5014718;28;20061;-69
2022/05/10 13:14:43;;;;;;;32.58;20.92;;;16.50;99.90;;;;;;5014953;28;20096;-69
2022/05/10 13:17:10;;;;;;;32.50;20.90;;;16.50;99.90;;;;;;5015094;28;20054;-69
2022/05/10 13:19:41;;;;;;;35.38;19.77;;;16.70;99.90;;;;;;5013771;28;20026;-68
2022/05/10 13:22:10;;;;;;;27.70;18.25;;;16.70;99.90;;;;;;5014595;28;20026;-68
2022/05/10 13:24:36;;;;;;;31.50;20.05;;;16.80;99.90;;;;;;5014550;28;20081;-68